Time;durP1;ratioP1;P1;durP2;ratioP2;P2;SDS_P1;SDS_P2;PMS_P1;PMS_P2;Temp;Humidity;BMP_temperature;BMP_pressure;BME280_temperature;BME280_humidity;BME280_pressure;Samples;Min_cycle;Max_cycle;Signal;HPM_P1;HPM_P2
2022/07/20 00:02:09;;;;;;;7.88;3.45;;;15.80;99.90;;;;;;5095909;28;20133;-78
2022/07/20 00:04:37;;;;;;;5.50;3.10;;;15.80;99.90;;;;;;5077147;28;20105;-78
2022/07/20 00:07:04;;;;;;;8.60;4.10;;;15.60;99.90;;;;;;5095572;28;20047;-78
2022/07/20 00:12:17;;;;;;;7.28;4.00;;;15.60;99.90;;;;;;5077462;28;20040;-78
2022/07/20 00:14:45;;;;;;;5.53;3.50;;;15.60;99.90;;;;;;5094942;28;20055;-78
2022/07/20 00:17:13;;;;;;;7.97;4.00;;;15.60;99.90;;;;;;5095108;28;20050;-78
2022/07/20 00:19:41;;;;;;;7.20;3.88;;;15.50;99.90;;;;;;5094613;28;20114;-78
2022/07/20 00:22:08;;;;;;;7.57;4.10;;;15.50;99.90;;;;;;5094914;28;20062;-77
2022/07/20 00:24:35;;;;;;;6.30;3.65;;;15.40;99.90;;;;;;5095073;28;20040;-76
2022/07/20 00:27:03;;;;;;;8.60;3.70;;;15.40;99.90;;;;;;5077672;28;20044;-78
2022/07/20 00:29:32;;;;;;;5.70;3.42;;;15.30;99.90;;;;;;5076244;28;20044;-77
2022/07/20 00:31:59;;;;;;;8.88;4.25;;;15.30;99.90;;;;;;5094932;28;20044;-77
2022/07/20 00:34:26;;;;;;;6.13;3.88;;;15.20;99.90;;;;;;5095649;28;20039;-78
2022/07/20 00:36:54;;;;;;;7.38;3.50;;;15.20;99.90;;;;;;5096221;28;20044;-78
2022/07/20 00:39:21;;;;;;;7.38;3.53;;;15.10;99.90;;;;;;5095854;28;20039;-78
2022/07/20 00:41:48;;;;;;;6.13;3.60;;;15.10;99.90;;;;;;5095913;28;20101;-77
2022/07/20 00:44:16;;;;;;;6.95;3.17;;;15.10;99.90;;;;;;5075893;28;20050;-77
2022/07/20 00:46:46;;;;;;;6.13;3.38;;;15.10;99.90;;;;;;5094062;28;20044;-77
2022/07/20 00:49:14;;;;;;;6.75;3.15;;;15.10;99.90;;;;;;5094249;28;20048;-77
2022/07/20 00:51:44;;;;;;;6.00;3.58;;;15.00;99.90;;;;;;5094976;28;20097;-77
2022/07/20 00:54:12;;;;;;;4.60;3.70;;;15.00;99.90;;;;;;5093541;28;20453;-77
2022/07/20 00:56:40;;;;;;;5.22;3.17;;;14.90;99.90;;;;;;5093505;28;20039;-77
2022/07/20 00:59:10;;;;;;;6.78;3.33;;;14.90;99.90;;;;;;5093571;28;20044;-77
2022/07/20 01:01:39;;;;;;;6.88;3.50;;;14.90;99.90;;;;;;5093532;28;20047;-77
2022/07/20 01:04:08;;;;;;;6.65;3.38;;;14.90;99.90;;;;;;5093479;28;20101;-77
2022/07/20 01:06:35;;;;;;;5.40;3.33;;;14.90;99.90;;;;;;5093712;28;20122;-77
2022/07/20 01:09:02;;;;;;;6.50;3.13;;;14.80;99.90;;;;;;5093426;28;20093;-77
2022/07/20 01:11:30;;;;;;;5.97;3.33;;;14.80;99.90;;;;;;5075751;28;20044;-77
2022/07/20 01:14:02;;;;;;;6.35;3.17;;;14.80;99.90;;;;;;5094690;28;20044;-76
2022/07/20 01:16:30;;;;;;;7.32;3.05;;;14.80;99.90;;;;;;5077556;28;20058;-77
2022/07/20 01:18:57;;;;;;;6.80;3.30;;;14.70;99.90;;;;;;5093974;28;20100;-76
2022/07/20 01:21:26;;;;;;;4.57;3.05;;;14.70;99.90;;;;;;5099225;28;20048;-76
2022/07/20 01:23:53;;;;;;;6.07;3.55;;;14.70;99.90;;;;;;5108052;28;20058;-77
2022/07/20 01:26:21;;;;;;;5.45;3.58;;;14.60;99.90;;;;;;5083238;28;20070;-73
2022/07/20 01:28:48;;;;;;;6.47;3.65;;;14.60;99.90;;;;;;5083196;28;20044;-74
2022/07/20 01:31:16;;;;;;;7.32;3.88;;;14.60;99.90;;;;;;5100387;28;20414;-74
2022/07/20 01:33:43;;;;;;;11.38;3.72;;;14.60;99.90;;;;;;5101976;28;20494;-74
2022/07/20 01:36:11;;;;;;;5.45;3.55;;;14.50;99.90;;;;;;5100979;28;20440;-74
2022/07/20 01:38:39;;;;;;;8.50;3.28;;;14.40;99.90;;;;;;5102371;28;20127;-73
2022/07/20 01:41:07;;;;;;;5.20;3.42;;;14.40;99.90;;;;;;5102176;28;20039;-74
2022/07/20 01:43:34;;;;;;;7.05;3.65;;;14.40;99.90;;;;;;5099862;28;20127;-74
2022/07/20 01:46:01;;;;;;;10.60;3.75;;;14.30;99.90;;;;;;5100778;28;20051;-74
2022/07/20 01:48:29;;;;;;;6.93;4.07;;;14.30;99.90;;;;;;5097602;28;20414;-74
2022/07/20 01:50:56;;;;;;;8.55;3.70;;;14.30;99.90;;;;;;5097496;28;20116;-74
2022/07/20 01:53:23;;;;;;;6.80;3.42;;;14.20;99.90;;;;;;5079681;28;20444;-75
2022/07/20 01:55:54;;;;;;;6.40;3.80;;;14.20;99.90;;;;;;5097676;28;20048;-74
2022/07/20 01:58:22;;;;;;;7.57;3.90;;;14.20;99.90;;;;;;5098251;28;20140;-74
2022/07/20 02:00:50;;;;;;;6.35;3.80;;;14.20;99.90;;;;;;5097097;28;20182;-73
2022/07/20 02:03:18;;;;;;;8.20;3.42;;;14.20;99.90;;;;;;5078324;28;20494;-74
2022/07/20 02:05:45;;;;;;;5.63;3.47;;;14.20;99.90;;;;;;5096804;28;20040;-74
2022/07/20 02:08:13;;;;;;;8.20;3.70;;;14.10;99.90;;;;;;5096806;28;20406;-74
2022/07/20 02:10:40;;;;;;;6.47;3.40;;;14.10;99.90;;;;;;5096431;28;20052;-74
2022/07/20 02:13:09;;;;;;;5.78;4.22;;;14.00;99.90;;;;;;5096600;28;20036;-74
2022/07/20 02:18:32;;;;;;;5.70;4.00;;;14.00;99.90;;;;;;5017426;28;20165;-74
2022/07/20 02:21:00;;;;;;;7.15;4.15;;;14.00;99.90;;;;;;5081256;28;20059;-74
2022/07/20 02:23:27;;;;;;;5.15;3.53;;;14.00;99.90;;;;;;5078099;28;20044;-74
2022/07/20 02:25:55;;;;;;;10.45;4.32;;;14.00;99.90;;;;;;5096646;28;20040;-74
2022/07/20 02:28:23;;;;;;;8.40;3.97;;;14.00;99.90;;;;;;5096055;28;20043;-74
2022/07/20 02:30:51;;;;;;;7.57;4.25;;;14.00;99.90;;;;;;5096655;28;20097;-74
2022/07/20 02:33:18;;;;;;;5.88;3.83;;;13.90;99.90;;;;;;5095829;28;20039;-74
2022/07/20 02:35:45;;;;;;;7.65;3.97;;;13.80;99.90;;;;;;5096055;28;20065;-74
2022/07/20 02:38:13;;;;;;;14.95;4.30;;;13.80;99.90;;;;;;5077360;28;20067;-74
2022/07/20 02:40:40;;;;;;;10.50;4.65;;;13.70;99.90;;;;;;5095739;28;20040;-74
2022/07/20 02:43:08;;;;;;;6.22;4.20;;;13.60;99.90;;;;;;5095643;28;20048;-74
2022/07/20 02:45:36;;;;;;;7.93;4.50;;;13.50;99.90;;;;;;5077726;28;20052;-74
2022/07/20 02:48:04;;;;;;;6.85;4.45;;;13.40;99.90;;;;;;5077468;28;20044;-74
2022/07/20 02:50:36;;;;;;;8.90;5.03;;;13.50;99.90;;;;;;5095800;28;20559;-74
2022/07/20 02:53:04;;;;;;;6.30;4.30;;;13.50;99.90;;;;;;5077455;28;20056;-74
2022/07/20 02:55:32;;;;;;;6.00;3.97;;;13.60;99.90;;;;;;5095462;28;20479;-74
2022/07/20 02:58:00;;;;;;;8.68;4.22;;;13.60;99.90;;;;;;5095598;28;20097;-74
2022/07/20 03:00:28;;;;;;;7.60;4.07;;;13.50;99.90;;;;;;5095426;28;20483;-74
2022/07/20 03:02:57;;;;;;;7.88;4.13;;;13.60;99.90;;;;;;5095297;28;20043;-74
2022/07/20 03:05:24;;;;;;;5.90;4.00;;;13.60;99.90;;;;;;5095606;28;20058;-74
2022/07/20 03:07:52;;;;;;;6.85;3.72;;;13.50;99.90;;;;;;5095559;28;20044;-74
2022/07/20 03:10:19;;;;;;;6.03;3.75;;;13.50;99.90;;;;;;5095319;28;20066;-74
2022/07/20 03:12:47;;;;;;;6.32;4.03;;;13.50;99.90;;;;;;5095282;28;20048;-74
2022/07/20 03:15:15;;;;;;;6.10;3.50;;;13.50;99.90;;;;;;5095350;28;20047;-74
2022/07/20 03:17:44;;;;;;;8.77;4.25;;;13.40;99.90;;;;;;5095401;28;20123;-74
2022/07/20 03:20:14;;;;;;;5.20;3.35;;;13.40;99.90;;;;;;5094892;28;20040;-74
2022/07/20 03:22:42;;;;;;;8.25;3.60;;;13.40;99.90;;;;;;5076642;28;20051;-74
2022/07/20 03:25:10;;;;;;;7.78;3.50;;;13.40;99.90;;;;;;5095216;28;20047;-74
2022/07/20 03:27:38;;;;;;;6.15;3.55;;;13.40;99.90;;;;;;5095149;28;20036;-74
2022/07/20 03:30:08;;;;;;;6.45;4.00;;;13.50;99.90;;;;;;5076889;28;20113;-74
2022/07/20 03:32:35;;;;;;;7.45;3.83;;;13.50;99.90;;;;;;5076754;28;20437;-74
2022/07/20 03:35:02;;;;;;;7.35;3.88;;;13.50;99.90;;;;;;5076849;28;20064;-74
2022/07/20 03:37:31;;;;;;;9.45;3.80;;;13.50;99.90;;;;;;5095002;28;20517;-74
2022/07/20 03:39:59;;;;;;;9.70;3.80;;;13.50;99.90;;;;;;5094808;28;20131;-74
2022/07/20 03:42:26;;;;;;;6.63;4.15;;;13.50;99.90;;;;;;5094603;28;20046;-75
2022/07/20 03:44:53;;;;;;;12.40;5.05;;;13.50;99.90;;;;;;5076540;28;20090;-74
2022/07/20 03:47:21;;;;;;;9.93;5.55;;;13.50;99.90;;;;;;5094636;28;20047;-74
2022/07/20 03:49:48;;;;;;;10.50;5.93;;;13.60;99.90;;;;;;5072913;28;20045;-74
2022/07/20 03:52:16;;;;;;;10.35;5.43;;;13.60;99.90;;;;;;5073716;28;20044;-75
2022/07/20 03:54:44;;;;;;;8.20;4.63;;;13.60;99.90;;;;;;5074184;28;20088;-74
2022/07/20 03:57:12;;;;;;;8.15;5.72;;;13.60;99.90;;;;;;5074116;28;20119;-74
2022/07/20 03:59:39;;;;;;;13.50;7.35;;;13.70;99.90;;;;;;5072846;28;20036;-74
2022/07/20 04:02:07;;;;;;;8.13;5.10;;;14.10;99.90;;;;;;5073973;28;20048;-75
2022/07/20 04:04:34;;;;;;;9.35;5.13;;;15.00;99.90;;;;;;5073708;28;20044;-74
2022/07/20 04:07:01;;;;;;;9.55;4.80;;;15.90;99.90;;;;;;5072917;28;20481;-74
2022/07/20 04:09:47;;;;;;;7.55;4.55;;;16.80;99.90;;;;;;5072389;28;20048;-74
2022/07/20 04:12:19;;;;;;;9.15;4.82;;;17.70;99.90;;;;;;5072659;28;20143;-75
2022/07/20 04:14:47;;;;;;;13.80;4.93;;;18.60;99.90;;;;;;5072386;28;20055;-74
2022/07/20 04:17:15;;;;;;;9.50;5.00;;;19.10;99.90;;;;;;5072850;28;20479;-75
2022/07/20 04:19:43;;;;;;;8.00;4.78;;;19.50;99.90;;;;;;5074001;28;20532;-73
2022/07/20 04:22:10;;;;;;;7.70;4.43;;;20.30;99.90;;;;;;5072560;28;20051;-74
2022/07/20 04:24:38;;;;;;;7.35;4.40;;;20.40;99.90;;;;;;5072100;28;20044;-74
2022/07/20 04:27:06;;;;;;;6.53;4.50;;;20.40;99.90;;;;;;5071952;28;20518;-74
2022/07/20 04:29:35;;;;;;;10.93;4.50;;;21.00;99.90;;;;;;5073464;28;20044;-73
2022/07/20 04:32:02;;;;;;;9.48;4.63;;;21.30;99.90;;;;;;5073665;28;20040;-73
2022/07/20 04:34:30;;;;;;;6.72;4.50;;;21.70;99.90;;;;;;5072279;28;20072;-73
2022/07/20 04:36:57;;;;;;;11.55;4.65;;;22.10;99.90;;;;;;5072514;28;20072;-73
2022/07/20 04:39:25;;;;;;;6.03;3.58;;;22.40;99.90;;;;;;5073302;28;20521;-74
2022/07/20 04:41:52;;;;;;;37.90;8.70;;;22.70;99.90;;;;;;5073703;28;20048;-73
2022/07/20 04:44:19;;;;;;;9.63;4.32;;;23.30;99.90;;;;;;5073149;28;20044;-73
2022/07/20 04:46:48;;;;;;;10.10;4.45;;;23.90;99.90;;;;;;5072202;28;20075;-73
2022/07/20 04:49:16;;;;;;;9.80;4.10;;;24.40;99.90;;;;;;5078330;28;20056;-73
2022/07/20 04:51:43;;;;;;;6.38;3.80;;;24.60;99.90;;;;;;5093654;28;20384;-73
2022/07/20 04:54:11;;;;;;;8.15;4.45;;;24.80;98.70;;;;;;5075019;28;20054;-73
2022/07/20 04:56:38;;;;;;;8.68;3.83;;;25.40;98.20;;;;;;5093725;28;20048;-73
2022/07/20 04:59:06;;;;;;;10.68;4.47;;;25.60;96.10;;;;;;5075519;28;20495;-73
2022/07/20 05:01:33;;;;;;;13.52;5.03;;;25.70;95.60;;;;;;5093409;28;20043;-73
2022/07/20 05:04:02;;;;;;;6.70;4.28;;;26.30;94.90;;;;;;5093462;28;20047;-74
2022/07/20 05:06:29;;;;;;;13.05;5.10;;;25.90;93.20;;;;;;5093402;28;20044;-74
2022/07/20 05:08:57;;;;;;;8.05;4.20;;;24.90;95.70;;;;;;5093220;28;20049;-73
2022/07/20 05:11:26;;;;;;;17.85;6.20;;;24.10;97.50;;;;;;5093684;28;20044;-74
2022/07/20 05:13:54;;;;;;;9.10;3.97;;;24.60;96.20;;;;;;5093175;28;20479;-74
2022/07/20 05:16:21;;;;;;;8.13;3.25;;;25.70;93.50;;;;;;5093709;28;20040;-73
2022/07/20 05:18:48;;;;;;;10.35;3.95;;;25.40;93.70;;;;;;5093660;28;20044;-74
2022/07/20 05:21:17;;;;;;;13.25;4.10;;;26.20;91.70;;;;;;5074829;28;20125;-74
2022/07/20 05:23:44;;;;;;;9.63;4.43;;;26.80;88.50;;;;;;5092883;28;20064;-74
2022/07/20 05:26:12;;;;;;;9.68;4.28;;;26.70;89.00;;;;;;5092943;28;20051;-73
2022/07/20 05:28:41;;;;;;;10.27;4.28;;;26.60;87.20;;;;;;5076661;28;20048;-76
2022/07/20 05:31:09;;;;;;;13.32;4.60;;;26.70;90.00;;;;;;5093600;28;20521;-75
2022/07/20 05:33:37;;;;;;;10.70;4.60;;;26.40;87.00;;;;;;5092727;28;20044;-75
2022/07/20 05:36:05;;;;;;;16.83;6.03;;;26.40;83.90;;;;;;5093020;28;20086;-73
2022/07/20 05:38:34;;;;;;;11.70;4.00;;;26.90;82.00;;;;;;5075319;28;20044;-73
2022/07/20 05:41:01;;;;;;;9.32;4.10;;;27.50;79.80;;;;;;5093833;28;20044;-73
2022/07/20 05:43:29;;;;;;;9.70;3.83;;;27.10;78.50;;;;;;5093766;28;20458;-74
2022/07/20 05:45:56;;;;;;;7.68;4.00;;;27.00;79.50;;;;;;5094640;28;20052;-73
2022/07/20 05:48:23;;;;;;;15.23;4.30;;;26.50;78.60;;;;;;5095483;28;20032;-74
2022/07/20 05:50:51;;;;;;;9.02;4.97;;;26.40;79.30;;;;;;5093324;28;20059;-74
2022/07/20 05:53:18;;;;;;;9.00;4.10;;;26.20;78.60;;;;;;5092921;28;20483;-74
2022/07/20 05:55:47;;;;;;;11.48;4.30;;;26.20;78.90;;;;;;5074436;28;20047;-73
2022/07/20 05:58:14;;;;;;;22.25;6.43;;;26.30;79.20;;;;;;5092489;28;20044;-73
2022/07/20 06:00:42;;;;;;;16.50;8.60;;;26.30;80.40;;;;;;5092186;28;20040;-73
2022/07/20 06:03:10;;;;;;;13.55;6.65;;;26.10;80.40;;;;;;5092371;28;20541;-73
2022/07/20 06:05:37;;;;;;;12.40;7.65;;;26.20;81.50;;;;;;5092672;28;20487;-73
2022/07/20 06:08:05;;;;;;;37.72;11.65;;;26.10;78.90;;;;;;5095660;28;20533;-73
2022/07/20 06:10:34;;;;;;;12.70;5.05;;;26.00;81.30;;;;;;5093675;28;20094;-74
2022/07/20 06:13:05;;;;;;;12.18;5.15;;;26.00;79.80;;;;;;5094350;28;20407;-74
2022/07/20 06:15:33;;;;;;;27.98;12.40;;;25.90;80.00;;;;;;5096539;28;20093;-74
2022/07/20 06:18:01;;;;;;;18.17;7.72;;;25.90;80.20;;;;;;5097072;28;20036;-72
2022/07/20 06:20:28;;;;;;;15.57;7.68;;;26.00;80.20;;;;;;5096205;28;20032;-74
2022/07/20 06:22:56;;;;;;;18.40;7.55;;;25.90;79.40;;;;;;5095929;28;20044;-74
2022/07/20 06:25:23;;;;;;;17.48;6.90;;;25.90;80.50;;;;;;5096069;28;20509;-73
2022/07/20 06:27:51;;;;;;;16.33;7.93;;;25.80;80.60;;;;;;5096018;28;20036;-74
2022/07/20 06:30:20;;;;;;;12.23;5.75;;;26.10;81.10;;;;;;5095844;28;20067;-74
2022/07/20 06:32:47;;;;;;;19.90;5.47;;;26.30;79.20;;;;;;5096062;28;20119;-74
2022/07/20 06:35:16;;;;;;;18.05;6.70;;;26.50;78.30;;;;;;5096154;28;20513;-74
2022/07/20 06:37:43;;;;;;;12.73;6.40;;;26.50;76.00;;;;;;5095958;28;20576;-74
2022/07/20 06:40:11;;;;;;;15.30;7.57;;;26.20;75.70;;;;;;5095523;28;20051;-74
2022/07/20 06:42:39;;;;;;;9.68;5.63;;;26.30;76.90;;;;;;5077290;28;20475;-74
2022/07/20 06:45:07;;;;;;;13.88;6.47;;;26.50;75.80;;;;;;5096097;28;20095;-74
2022/07/20 06:47:36;;;;;;;15.18;8.63;;;26.70;74.90;;;;;;5095899;28;20133;-74
2022/07/20 06:50:04;;;;;;;11.10;6.07;;;26.90;74.70;;;;;;5095943;28;20056;-74
2022/07/20 06:52:32;;;;;;;13.20;5.95;;;27.10;74.60;;;;;;5095438;28;20048;-74
2022/07/20 06:54:59;;;;;;;13.63;6.88;;;27.20;72.60;;;;;;5095591;28;20181;-73
2022/07/20 06:57:26;;;;;;;14.13;8.77;;;27.30;71.90;;;;;;5077555;28;20470;-74
2022/07/20 06:59:54;;;;;;;15.82;6.05;;;27.30;73.80;;;;;;5095317;28;20047;-73
2022/07/20 07:02:21;;;;;;;12.75;6.65;;;27.30;72.20;;;;;;5095331;28;20036;-74
2022/07/20 07:04:50;;;;;;;12.65;5.82;;;27.30;72.50;;;;;;5095183;28;20048;-74
2022/07/20 07:07:17;;;;;;;11.68;5.03;;;26.90;71.10;;;;;;5095183;28;20044;-74
2022/07/20 07:09:45;;;;;;;9.82;5.47;;;26.90;71.30;;;;;;5095048;28;20048;-74
2022/07/20 07:12:12;;;;;;;8.63;4.78;;;27.10;70.70;;;;;;5077586;28;20653;-74
2022/07/20 07:14:39;;;;;;;11.07;4.63;;;27.10;69.90;;;;;;5077712;28;20094;-74
2022/07/20 07:17:07;;;;;;;8.75;4.82;;;27.20;69.10;;;;;;5095489;28;20595;-74
2022/07/20 07:19:35;;;;;;;10.48;4.50;;;27.40;68.10;;;;;;5095303;28;20119;-74
2022/07/20 07:22:04;;;;;;;8.40;4.40;;;27.60;67.80;;;;;;5094820;28;20165;-74
2022/07/20 07:24:31;;;;;;;11.98;4.10;;;27.90;69.60;;;;;;5093838;28;20048;-74
2022/07/20 07:26:59;;;;;;;11.50;4.35;;;28.10;68.80;;;;;;5077382;28;20048;-74
2022/07/20 07:29:27;;;;;;;8.05;4.88;;;28.20;69.90;;;;;;5095155;28;20094;-74
2022/07/20 07:31:58;;;;;;;12.32;4.47;;;28.30;71.10;;;;;;5095311;28;20040;-74
2022/07/20 07:34:26;;;;;;;10.35;5.03;;;28.40;69.80;;;;;;5076768;28;20109;-74
2022/07/20 07:36:53;;;;;;;9.98;4.50;;;28.60;69.60;;;;;;5095201;28;20047;-74
2022/07/20 07:39:22;;;;;;;9.65;5.00;;;28.70;73.60;;;;;;5095073;28;20048;-74
2022/07/20 07:41:49;;;;;;;6.90;4.45;;;28.50;70.00;;;;;;5076797;28;20063;-74
2022/07/20 07:44:17;;;;;;;11.45;4.03;;;28.30;74.60;;;;;;5094809;28;20044;-73
2022/07/20 07:46:44;;;;;;;13.40;3.67;;;28.20;71.00;;;;;;5094612;28;20044;-74
2022/07/20 07:49:11;;;;;;;8.52;3.90;;;28.10;66.80;;;;;;5094254;28;20511;-74
2022/07/20 07:51:39;;;;;;;7.57;3.92;;;28.00;64.80;;;;;;5094643;28;20043;-73
2022/07/20 07:54:06;;;;;;;9.40;4.00;;;28.20;63.50;;;;;;5094598;28;20044;-73
2022/07/20 07:56:35;;;;;;;8.43;4.05;;;28.30;64.50;;;;;;5094573;28;20083;-74
2022/07/20 07:59:03;;;;;;;6.75;3.72;;;28.50;63.40;;;;;;5076142;28;20040;-74
2022/07/20 08:01:31;;;;;;;9.05;3.42;;;28.80;63.40;;;;;;5076446;28;20040;-74
2022/07/20 08:03:58;;;;;;;8.65;4.03;;;29.10;64.90;;;;;;5076879;28;20048;-74
2022/07/20 08:06:26;;;;;;;10.45;5.38;;;29.30;64.90;;;;;;5094799;28;20070;-74
2022/07/20 08:08:53;;;;;;;9.30;5.50;;;29.50;66.50;;;;;;5094903;28;20097;-74
2022/07/20 08:11:20;;;;;;;7.35;4.47;;;29.40;65.60;;;;;;5094687;28;20044;-73
2022/07/20 08:13:49;;;;;;;13.10;5.20;;;29.30;67.00;;;;;;5094630;28;20513;-73
2022/07/20 08:16:16;;;;;;;9.07;4.57;;;29.10;66.90;;;;;;5094311;28;20071;-74
2022/07/20 08:18:44;;;;;;;6.57;4.45;;;29.20;66.50;;;;;;5094427;28;20462;-76
2022/07/20 08:21:11;;;;;;;9.57;4.35;;;29.10;66.30;;;;;;5094410;28;20047;-74
2022/07/20 08:23:38;;;;;;;12.45;5.15;;;29.30;65.50;;;;;;5093751;28;20036;-74
2022/07/20 08:26:06;;;;;;;12.40;5.72;;;29.40;65.20;;;;;;5093854;28;20047;-74
2022/07/20 08:28:33;;;;;;;6.03;3.50;;;29.50;64.90;;;;;;5094071;28;20060;-74
2022/07/20 08:31:02;;;;;;;9.13;3.97;;;29.70;62.90;;;;;;5075511;28;20063;-75
2022/07/20 08:33:29;;;;;;;9.15;3.78;;;29.80;62.90;;;;;;5093841;28;20047;-75
2022/07/20 08:35:56;;;;;;;11.45;5.13;;;29.80;62.80;;;;;;5093143;28;20074;-76
2022/07/20 08:38:24;;;;;;;7.70;4.72;;;30.00;61.80;;;;;;5093542;28;20052;-75
2022/07/20 08:40:51;;;;;;;9.75;3.50;;;30.00;61.50;;;;;;5075156;28;20434;-73
2022/07/20 08:43:18;;;;;;;12.60;4.75;;;30.30;61.90;;;;;;5093310;28;20164;-75
2022/07/20 08:45:48;;;;;;;9.68;3.95;;;30.50;59.70;;;;;;5093708;28;20352;-74
2022/07/20 08:48:18;;;;;;;9.60;4.60;;;30.60;59.50;;;;;;5075482;28;20499;-74
2022/07/20 08:50:46;;;;;;;10.57;4.10;;;30.80;60.00;;;;;;5093780;28;20056;-75
2022/07/20 08:53:14;;;;;;;10.15;4.10;;;31.00;59.40;;;;;;5093247;28;20055;-75
2022/07/20 08:55:41;;;;;;;5.40;3.60;;;31.10;58.60;;;;;;5093346;28;20569;-75
2022/07/20 08:58:10;;;;;;;8.40;3.80;;;30.90;57.60;;;;;;5093532;28;20048;-75
2022/07/20 09:00:38;;;;;;;5.13;3.58;;;30.90;56.30;;;;;;5093239;28;20079;-75
2022/07/20 09:03:07;;;;;;;20.75;4.93;;;30.80;54.70;;;;;;5093251;28;20048;-74
2022/07/20 09:05:37;;;;;;;9.40;3.13;;;30.60;53.30;;;;;;5093444;28;20148;-76
2022/07/20 09:08:06;;;;;;;7.45;4.80;;;30.70;53.50;;;;;;5075424;28;20059;-75
2022/07/20 09:10:36;;;;;;;5.00;2.80;;;30.90;52.70;;;;;;5093250;28;20411;-74
2022/07/20 09:13:05;;;;;;;6.50;3.60;;;30.90;51.70;;;;;;5093332;28;20082;-74
2022/07/20 09:15:36;;;;;;;4.00;2.42;;;31.00;51.90;;;;;;5075279;28;20063;-75
2022/07/20 09:18:15;;;;;;;5.00;2.35;;;31.20;50.90;;;;;;5093124;28;20052;-75
2022/07/20 09:20:46;;;;;;;7.32;2.92;;;31.20;50.80;;;;;;5093135;28;20047;-75
2022/07/20 09:23:15;;;;;;;3.90;2.55;;;31.00;51.40;;;;;;5093001;28;20040;-75
2022/07/20 09:26:00;;;;;;;4.55;2.53;;;30.60;51.70;;;;;;5093274;28;20044;-75
2022/07/20 09:28:37;;;;;;;5.82;2.53;;;30.80;51.00;;;;;;5075261;28;20074;-75
2022/07/20 09:31:10;;;;;;;5.68;2.42;;;30.90;51.20;;;;;;5093591;28;20073;-74
2022/07/20 09:33:38;;;;;;;4.93;2.80;;;30.80;51.40;;;;;;5076341;28;20052;-74
2022/07/20 09:36:08;;;;;;;3.85;3.00;;;30.90;51.10;;;;;;5099374;28;20123;-75
2022/07/20 09:38:36;;;;;;;16.10;13.95;;;30.90;50.40;;;;;;5103167;28;20109;-74
2022/07/20 09:41:07;;;;;;;4.65;3.10;;;30.90;51.00;;;;;;5104995;28;20052;-74
2022/07/20 09:43:36;;;;;;;12.75;6.75;;;31.00;51.00;;;;;;5099778;28;20516;-75
2022/07/20 09:46:13;;;;;;;7.22;2.70;;;31.00;50.20;;;;;;5093482;28;20048;-75
2022/07/20 09:48:42;;;;;;;12.40;4.15;;;31.10;50.00;;;;;;5096626;28;20122;-74
2022/07/20 09:51:25;;;;;;;4.32;3.17;;;31.40;49.60;;;;;;5131617;22;20052;-77
2022/07/20 09:53:55;;;;;;;4.60;3.33;;;31.40;49.10;;;;;;5090477;28;20440;-76
2022/07/20 09:56:24;;;;;;;5.97;2.88;;;31.50;48.40;;;;;;5104837;28;20044;-76
2022/07/20 09:58:53;;;;;;;11.30;3.70;;;31.60;47.80;;;;;;5086495;28;20070;-76
2022/07/20 10:01:22;;;;;;;6.13;3.78;;;31.50;48.30;;;;;;5099992;28;20106;-76
2022/07/20 10:03:51;;;;;;;5.82;3.08;;;31.70;48.10;;;;;;5099200;28;20040;-75
2022/07/20 10:06:20;;;;;;;5.45;2.60;;;31.50;46.90;;;;;;5099037;28;20486;-77
2022/07/20 10:08:50;;;;;;;4.63;2.97;;;31.70;46.80;;;;;;5099510;28;20552;-76
2022/07/20 10:11:19;;;;;;;5.50;3.17;;;31.40;46.60;;;;;;5099224;28;20062;-77
2022/07/20 10:13:48;;;;;;;7.80;3.15;;;31.50;46.70;;;;;;5098538;28;20044;-77
2022/07/20 10:16:24;;;;;;;7.70;3.22;;;31.50;46.90;;;;;;5098729;28;20435;-76
2022/07/20 10:18:54;;;;;;;6.03;2.83;;;31.70;46.70;;;;;;5080307;28;20048;-76
2022/07/20 10:21:35;;;;;;;6.15;3.72;;;31.40;46.00;;;;;;5098748;28;21908;-78
2022/07/20 10:24:25;;;;;;;6.10;2.90;;;31.50;46.10;;;;;;5098264;28;20048;-76
2022/07/20 10:26:55;;;;;;;5.57;2.75;;;31.60;45.40;;;;;;5098446;28;20086;-76
2022/07/20 10:29:33;;;;;;;4.97;2.70;;;31.70;45.30;;;;;;5098637;28;20042;-76
2022/07/20 10:32:14;;;;;;;6.00;3.25;;;31.80;45.70;;;;;;5080301;28;20078;-76
2022/07/20 10:34:45;;;;;;;3.65;2.60;;;31.80;45.80;;;;;;5098293;28;20067;-76
2022/07/20 10:37:37;;;;;;;6.05;4.55;;;31.50;46.30;;;;;;5099110;28;20051;-76
2022/07/20 10:40:11;;;;;;;4.47;3.47;;;31.60;45.90;;;;;;5085083;28;20418;-77
2022/07/20 10:42:43;;;;;;;4.70;3.60;;;31.70;45.00;;;;;;5098323;28;20437;-77
2022/07/20 10:45:34;;;;;;;5.03;2.50;;;31.70;45.80;;;;;;5080175;28;20052;-79
2022/07/20 10:48:19;;;;;;;4.78;3.22;;;31.80;46.00;;;;;;5098947;28;20062;-77
2022/07/20 10:50:49;;;;;;;6.53;3.28;;;31.80;46.40;;;;;;5075259;28;20048;-77
2022/07/20 10:53:33;;;;;;;6.53;3.05;;;32.00;45.50;;;;;;5077729;28;20049;-77
2022/07/20 10:56:05;;;;;;;4.63;3.08;;;31.90;46.00;;;;;;5077882;28;20389;-78
2022/07/20 10:58:35;;;;;;;8.20;3.00;;;31.80;46.40;;;;;;5079002;28;20090;-77
2022/07/20 11:01:04;;;;;;;7.43;2.47;;;31.80;44.80;;;;;;5078373;28;20454;-76
2022/07/20 11:03:35;;;;;;;5.30;3.03;;;31.80;45.40;;;;;;5077295;28;20071;-78
2022/07/20 11:06:06;;;;;;;9.50;2.88;;;31.70;44.80;;;;;;5085659;28;20040;-77
2022/07/20 11:08:34;;;;;;;4.10;2.40;;;31.80;44.60;;;;;;5087575;28;20055;-76
2022/07/20 11:11:03;;;;;;;3.83;2.60;;;31.80;44.30;;;;;;5077509;28;20045;-77
2022/07/20 11:13:31;;;;;;;5.35;3.13;;;31.60;45.00;;;;;;5077969;28;20489;-79
2022/07/20 11:16:00;;;;;;;4.68;2.33;;;31.50;44.90;;;;;;5077044;28;20059;-77
2022/07/20 11:18:32;;;;;;;6.35;2.97;;;31.50;43.20;;;;;;5078759;28;20040;-78
2022/07/20 11:21:01;;;;;;;5.75;2.75;;;31.50;44.10;;;;;;5080387;28;20518;-80
2022/07/20 11:23:39;;;;;;;5.22;2.65;;;31.50;44.80;;;;;;5091308;28;20017;-80
2022/07/20 11:26:09;;;;;;;4.60;2.97;;;31.30;44.80;;;;;;5097897;28;20133;-77
2022/07/20 11:28:39;;;;;;;5.82;2.90;;;31.20;43.50;;;;;;5096842;28;20052;-77
2022/07/20 11:31:07;;;;;;;8.30;4.72;;;31.30;43.90;;;;;;5082066;28;20048;-79
2022/07/20 11:33:39;;;;;;;11.48;7.75;;;31.30;44.00;;;;;;5080760;28;20058;-76
2022/07/20 11:36:08;;;;;;;9.50;4.80;;;31.50;43.90;;;;;;5078591;28;20518;-78
2022/07/20 11:38:39;;;;;;;9.23;3.50;;;31.50;43.10;;;;;;5078092;28;20066;-78
2022/07/20 11:41:10;;;;;;;10.15;3.85;;;31.60;42.80;;;;;;5078267;28;20045;-76
2022/07/20 11:43:37;;;;;;;3.97;2.65;;;31.80;42.60;;;;;;5076088;28;20044;-77
2022/07/20 11:46:16;;;;;;;3.97;2.40;;;31.90;42.70;;;;;;5077305;28;20099;-77
2022/07/20 11:48:52;;;;;;;3.95;2.88;;;31.70;43.70;;;;;;5077465;28;20055;-76
2022/07/20 11:51:19;;;;;;;4.40;2.50;;;31.60;43.70;;;;;;5096077;28;20052;-77
2022/07/20 11:53:46;;;;;;;5.22;2.53;;;31.60;44.20;;;;;;5097137;28;20119;-77
2022/07/20 11:56:17;;;;;;;5.55;2.42;;;31.60;44.20;;;;;;5081318;28;20466;-77
2022/07/20 11:58:46;;;;;;;4.88;2.80;;;31.70;44.60;;;;;;5078868;28;20044;-79
2022/07/20 12:01:19;;;;;;;3.42;2.80;;;31.80;44.70;;;;;;5096990;28;20086;-79
2022/07/20 12:03:55;;;;;;;5.53;2.53;;;31.80;44.30;;;;;;5097974;28;20042;-76
2022/07/20 12:06:23;;;;;;;6.53;2.90;;;31.80;43.00;;;;;;5099643;28;20048;-77
2022/07/20 12:09:03;;;;;;;5.28;3.70;;;31.90;43.10;;;;;;5081531;28;20103;-79
2022/07/20 12:11:31;;;;;;;6.00;3.10;;;31.90;42.40;;;;;;5080415;28;20067;-78
2022/07/20 12:13:59;;;;;;;4.22;3.03;;;32.00;43.30;;;;;;5098815;28;20044;-78
2022/07/20 12:16:40;;;;;;;4.55;3.00;;;31.90;44.10;;;;;;5082099;28;20048;-79
2022/07/20 12:19:07;;;;;;;6.28;2.63;;;31.80;44.70;;;;;;5100596;28;20099;-77
2022/07/20 12:21:43;;;;;;;4.55;2.95;;;31.80;44.20;;;;;;5101274;28;20078;-76
2022/07/20 12:24:10;;;;;;;;;;;31.50;44.70;;;;;;5100790;28;20548;-77
2022/07/20 12:26:40;;;;;;;5.05;2.67;;;31.50;44.90;;;;;;5099813;28;20019;-76
2022/07/20 12:29:19;;;;;;;7.53;3.95;;;31.70;44.00;;;;;;5081670;28;20052;-77
2022/07/20 12:31:58;;;;;;;5.07;3.13;;;31.80;44.20;;;;;;5099431;28;20051;-76
2022/07/20 12:34:25;;;;;;;3.40;2.72;;;31.90;42.80;;;;;;5079185;28;20048;-77
2022/07/20 12:36:53;;;;;;;7.55;4.55;;;31.90;41.80;;;;;;5097944;28;20047;-76
2022/07/20 12:39:39;;;;;;;3.70;2.58;;;32.00;41.50;;;;;;5098456;28;20066;-76
2022/07/20 12:42:12;;;;;;;4.63;2.53;;;32.00;40.80;;;;;;5096704;28;20050;-76
2022/07/20 12:44:46;;;;;;;4.53;2.97;;;32.00;41.00;;;;;;5098484;28;20035;-76
2022/07/20 12:47:14;;;;;;;7.13;2.47;;;32.10;41.40;;;;;;5098052;28;20055;-77
2022/07/20 12:49:42;;;;;;;4.20;2.85;;;32.00;41.40;;;;;;5081333;28;20503;-78
2022/07/20 12:52:09;;;;;;;3.58;2.25;;;32.00;41.20;;;;;;5078107;28;20513;-76
2022/07/20 12:54:37;;;;;;;3.97;2.55;;;31.90;41.40;;;;;;5096815;28;20123;-78
2022/07/20 12:57:04;;;;;;;5.45;3.78;;;32.00;42.20;;;;;;5077859;28;20076;-76
2022/07/20 12:59:33;;;;;;;4.05;2.97;;;32.10;42.50;;;;;;5078912;28;20445;-78
2022/07/20 13:02:03;;;;;;;6.43;5.38;;;32.20;42.00;;;;;;5108655;28;20040;-77